Time;durP1;ratioP1;P1;durP2;ratioP2;P2;SDS_P1;SDS_P2;PMS_P1;PMS_P2;Temp;Humidity;BMP_temperature;BMP_pressure;BME280_temperature;BME280_humidity;BME280_pressure;Samples;Min_cycle;Max_cycle;Signal;HPM_P1;HPM_P2
2022/07/22 00:02:08;;;;;;;13.70;8.18;;;;;;;18.96;97.00;100201.19;12205363;19;20024;-80
2022/07/22 00:06:10;;;;;;;11.45;7.38;;;;;;;18.91;97.25;100204.03;12178966;19;20116;-81
2022/07/22 00:10:12;;;;;;;14.95;7.95;;;;;;;18.86;97.54;100201.31;12200292;19;20026;-80
2022/07/22 00:14:13;;;;;;;12.52;7.35;;;;;;;18.83;97.28;100204.69;12213926;19;20019;-83
2022/07/22 00:18:15;;;;;;;12.50;7.22;;;;;;;18.82;96.89;100200.22;12186557;19;20180;-82
2022/07/22 00:22:17;;;;;;;13.30;8.02;;;;;;;18.74;98.10;100193.34;12208704;19;20014;-80
2022/07/22 00:26:21;;;;;;;13.65;8.10;;;;;;;18.67;99.48;100181.63;12210735;19;20007;-81
2022/07/22 00:30:22;;;;;;;11.82;7.78;;;;;;;18.63;99.61;100187.00;12194543;19;20707;-80
2022/07/22 00:34:24;;;;;;;13.27;7.70;;;;;;;18.60;99.85;100189.53;12200940;19;20018;-79
2022/07/22 00:38:26;;;;;;;13.63;8.38;;;;;;;18.57;99.62;100185.38;12200113;19;20018;-82
2022/07/22 00:42:28;;;;;;;12.88;8.20;;;;;;;18.47;100.00;100179.88;12184959;19;20028;-81
2022/07/22 00:46:30;;;;;;;13.95;7.82;;;;;;;18.44;100.00;100180.47;12196982;19;20010;-76
2022/07/22 00:50:32;;;;;;;;;;;;;;;18.38;100.00;100188.06;12183340;19;20007;-81
2022/07/22 00:54:37;;;;;;;13.07;8.05;;;;;;;18.35;100.00;100194.25;12198294;19;19923;-80
2022/07/22 00:58:39;;;;;;;12.48;8.32;;;;;;;18.34;100.00;100186.16;12212463;19;20014;-80
2022/07/22 01:02:41;;;;;;;15.60;8.70;;;;;;;18.31;100.00;100189.53;12173224;19;20432;-79
2022/07/22 01:06:46;;;;;;;13.52;8.55;;;;;;;18.25;100.00;100182.31;12196557;19;20030;-81
2022/07/22 01:10:48;;;;;;;12.70;8.07;;;;;;;18.20;100.00;100189.63;12206005;19;20106;-82
2022/07/22 01:14:50;;;;;;;11.77;8.52;;;;;;;18.13;100.00;100183.53;12186448;19;21472;-81
2022/07/22 01:18:53;;;;;;;15.15;7.85;;;;;;;18.09;100.00;100190.81;12192470;19;20011;-80
2022/07/22 01:22:55;;;;;;;15.75;8.55;;;;;;;18.04;100.00;100193.63;12204385;19;20027;-81
2022/07/22 01:26:57;;;;;;;13.70;8.73;;;;;;;17.93;100.00;100186.47;12175771;19;20007;-80
2022/07/22 01:30:59;;;;;;;15.40;9.10;;;;;;;17.91;100.00;100191.53;12185717;19;20187;-80
2022/07/22 01:35:01;;;;;;;10.48;7.65;;;;;;;17.86;100.00;100192.38;12203780;19;20014;-80
2022/07/22 01:39:03;;;;;;;13.03;8.93;;;;;;;17.86;100.00;100197.94;12175527;19;20633;-80
2022/07/22 01:43:06;;;;;;;12.65;7.68;;;;;;;17.87;100.00;100187.63;12206695;19;20027;-79
2022/07/22 01:47:09;;;;;;;16.03;9.20;;;;;;;17.85;100.00;100190.72;12206320;19;20006;-79
2022/07/22 01:51:10;;;;;;;;;;;;;;;17.85;100.00;100184.31;12186875;19;20014;-80
2022/07/22 01:55:13;;;;;;;13.07;8.40;;;;;;;17.83;100.00;100192.94;12192862;19;20008;-80
2022/07/22 01:59:15;;;;;;;12.80;8.95;;;;;;;17.79;100.00;100191.00;12197528;19;20020;-81
2022/07/22 02:03:17;;;;;;;15.40;8.90;;;;;;;17.75;100.00;100187.94;12183036;19;20022;-80
2022/07/22 02:07:19;;;;;;;15.45;8.65;;;;;;;17.74;100.00;100187.13;12196542;19;19998;-78
2022/07/22 02:11:20;;;;;;;18.17;9.30;;;;;;;17.68;100.00;100191.06;12196262;19;20017;-78
2022/07/22 02:15:27;;;;;;;14.00;8.05;;;;;;;17.63;100.00;100195.81;12173407;19;20086;-78
2022/07/22 02:19:31;;;;;;;14.93;8.52;;;;;;;17.57;100.00;100203.38;12198803;19;20015;-79
2022/07/22 02:23:33;;;;;;;11.07;8.45;;;;;;;17.51;100.00;100197.00;12186715;19;20010;-81
2022/07/22 02:27:34;;;;;;;12.80;8.45;;;;;;;17.47;100.00;100201.47;12188238;19;20011;-80
2022/07/22 02:31:36;;;;;;;15.88;9.82;;;;;;;17.45;100.00;100189.78;12202606;19;20382;-79
2022/07/22 02:35:41;;;;;;;14.93;9.02;;;;;;;17.42;100.00;100193.16;12167606;19;20453;-81
2022/07/22 02:39:44;;;;;;;;;;;;;;;17.39;100.00;100196.50;12189304;19;20077;-78
2022/07/22 02:43:48;;;;;;;14.65;9.32;;;;;;;17.41;100.00;100193.44;12191250;19;21489;-79
2022/07/22 02:47:55;;;;;;;10.63;6.90;;;;;;;17.42;100.00;100192.31;12165250;19;20350;-79
2022/07/22 02:51:58;;;;;;;13.90;9.25;;;;;;;17.29;100.00;100194.59;12194750;19;20477;-80
2022/07/22 02:56:00;;;;;;;18.87;9.40;;;;;;;17.18;100.00;100192.16;12191321;19;20480;-80
2022/07/22 03:00:04;;;;;;;14.88;10.20;;;;;;;17.15;100.00;100199.13;12175607;19;20006;-79
2022/07/22 03:04:09;;;;;;;15.90;9.32;;;;;;;17.10;100.00;100196.34;12187448;19;20045;-78
2022/07/22 03:08:13;;;;;;;19.42;10.27;;;;;;;17.04;100.00;100198.34;12194966;19;20028;-81
2022/07/22 03:12:15;;;;;;;18.70;9.68;;;;;;;17.01;100.00;100207.25;12164890;19;20014;-79
2022/07/22 03:16:16;;;;;;;17.42;10.15;;;;;;;16.95;100.00;100200.00;12198509;19;20388;-80
2022/07/22 03:20:19;;;;;;;;;;;;;;;16.88;100.00;100207.00;12209058;19;20675;-80
2022/07/22 03:24:22;;;;;;;17.05;9.90;;;;;;;16.88;100.00;100204.22;12189996;19;19921;-77
2022/07/22 03:28:24;;;;;;;17.25;10.52;;;;;;;16.92;100.00;100199.75;12204260;19;20018;-81
2022/07/22 03:32:26;;;;;;;16.58;10.18;;;;;;;16.85;100.00;100195.31;12213897;19;20036;-78
2022/07/22 03:36:29;;;;;;;16.45;10.05;;;;;;;16.89;100.00;100201.13;12184789;19;20011;-80
2022/07/22 03:40:31;;;;;;;18.42;10.50;;;;;;;16.93;100.00;100198.66;12205521;19;20007;-79
2022/07/22 03:44:34;;;;;;;16.40;10.43;;;;;;;16.94;100.00;100197.50;12180610;19;20014;-79
2022/07/22 03:48:36;;;;;;;;;;;;;;;17.05;100.00;100202.78;12196013;19;20011;-80
2022/07/22 03:52:38;;;;;;;17.15;10.65;;;;;;;17.15;100.00;100196.31;12214054;19;19934;-80
2022/07/22 03:56:43;;;;;;;15.88;9.10;;;;;;;17.27;100.00;100194.03;12172610;19;19999;-79
2022/07/22 04:00:45;;;;;;;19.85;10.27;;;;;;;17.39;100.00;100198.47;12210025;19;20026;-80
2022/07/22 04:04:47;;;;;;;16.75;9.60;;;;;;;17.56;100.00;100200.91;12191116;19;20341;-80
2022/07/22 04:08:51;;;;;;;14.45;9.30;;;;;;;17.71;100.00;100198.00;12178000;19;20014;-80
2022/07/22 04:12:53;;;;;;;20.70;10.00;;;;;;;17.82;100.00;100205.22;12214265;19;20054;-80
2022/07/22 04:17:02;;;;;;;12.65;8.90;;;;;;;17.98;100.00;100201.19;12201119;19;20062;-78
2022/07/22 04:21:04;;;;;;;11.25;8.60;;;;;;;18.10;100.00;100195.25;12183254;19;20006;-80
2022/07/22 04:25:27;;;;;;;16.70;8.73;;;;;;;18.21;100.00;100194.06;12193198;19;20011;-80
2022/07/22 04:29:29;;;;;;;11.55;9.30;;;;;;;18.33;100.00;100185.31;12201859;19;20018;-78
2022/07/22 04:33:31;;;;;;;17.10;9.37;;;;;;;18.42;100.00;100182.72;12176995;19;20010;-78
2022/07/22 04:37:33;;;;;;;15.80;8.63;;;;;;;18.54;100.00;100185.97;12193900;19;20011;-79
2022/07/22 04:41:35;;;;;;;12.30;8.47;;;;;;;18.65;100.00;100193.13;12181815;19;20011;-80
2022/07/22 04:45:38;;;;;;;16.80;8.80;;;;;;;18.74;100.00;100189.69;12195841;19;20031;-78
2022/07/22 04:49:39;;;;;;;15.38;8.88;;;;;;;18.84;100.00;100184.03;12192175;19;20011;-77
2022/07/22 04:53:43;;;;;;;13.00;8.65;;;;;;;18.89;100.00;100186.75;12176654;19;20010;-79
2022/07/22 04:57:54;;;;;;;13.23;7.57;;;;;;;19.00;99.88;100177.13;12195428;19;20019;-79
2022/07/22 05:01:56;;;;;;;15.80;6.93;;;;;;;19.02;98.46;100180.47;12204638;19;20002;-80
2022/07/22 05:05:58;;;;;;;12.95;8.20;;;;;;;19.11;98.45;100172.25;12170205;19;20038;-77
2022/07/22 05:10:07;;;;;;;16.30;8.85;;;;;;;19.22;97.60;100181.34;12197291;19;20412;-77
2022/07/22 05:14:09;;;;;;;10.82;7.88;;;;;;;19.33;97.00;100191.25;12199395;19;20014;-78
2022/07/22 05:18:11;;;;;;;14.32;8.20;;;;;;;19.47;95.84;100177.38;12172682;19;20416;-78
2022/07/22 05:22:14;;;;;;;15.00;8.05;;;;;;;19.57;95.30;100186.47;12199907;19;20006;-79
2022/07/22 05:26:16;;;;;;;13.18;8.73;;;;;;;19.59;94.35;100186.97;12198260;19;20027;-79
2022/07/22 05:30:19;;;;;;;16.13;10.30;;;;;;;19.66;93.84;100191.41;12180482;19;20108;-79
2022/07/22 05:34:25;;;;;;;16.70;10.32;;;;;;;19.74;93.13;100204.72;12185912;19;20033;-80
2022/07/22 05:38:31;;;;;;;16.45;10.45;;;;;;;19.80;92.69;100192.31;12184386;19;20018;-80
2022/07/22 05:42:33;;;;;;;16.73;11.00;;;;;;;19.77;91.81;100195.72;12165864;19;20364;-81
2022/07/22 05:46:35;;;;;;;14.75;10.57;;;;;;;19.75;91.50;100201.63;12187634;19;20034;-80
2022/07/22 05:50:38;;;;;;;18.98;11.85;;;;;;;19.83;91.27;100200.09;12182735;19;20082;-81
2022/07/22 05:54:39;;;;;;;16.17;10.55;;;;;;;19.83;90.11;100194.50;12191959;19;20089;-80
2022/07/22 05:58:42;;;;;;;12.38;9.32;;;;;;;19.87;90.63;100192.78;12201320;19;20062;-80
2022/07/22 06:02:46;;;;;;;16.02;9.90;;;;;;;19.91;90.35;100193.84;12175270;19;20030;-79
2022/07/22 06:06:52;;;;;;;15.07;8.60;;;;;;;20.13;89.33;100189.56;12195122;19;20386;-80
2022/07/22 06:10:54;;;;;;;15.47;9.50;;;;;;;20.13;89.05;100197.97;12196821;19;20014;-79
2022/07/22 06:14:56;;;;;;;13.82;8.98;;;;;;;20.28;87.86;100200.50;12164609;19;20377;-81
2022/07/22 06:18:58;;;;;;;17.00;8.97;;;;;;;20.55;87.13;100194.19;12187345;19;20044;-80
2022/07/22 06:23:01;;;;;;;;;;;;;;;20.67;85.80;100188.09;12200924;19;20484;-80
2022/07/22 06:27:04;;;;;;;13.95;9.38;;;;;;;20.75;84.60;100187.41;12164443;19;19947;-80
2022/07/22 06:31:06;;;;;;;13.80;9.20;;;;;;;20.72;84.00;100176.81;12200963;19;20614;-81
2022/07/22 06:35:08;;;;;;;12.48;7.93;;;;;;;20.69;83.68;100183.03;12204091;19;20532;-80
2022/07/22 06:39:10;;;;;;;12.13;8.02;;;;;;;20.72;83.68;100176.81;12177665;19;20386;-81
2022/07/22 06:43:32;;;;;;;13.20;7.72;;;;;;;20.83;83.39;100174.66;12203558;19;20013;-79
2022/07/22 06:47:51;;;;;;;11.30;8.30;;;;;;;21.00;82.75;100183.31;12174151;19;20480;-80
2022/07/22 06:51:53;;;;;;;10.00;7.47;;;;;;;21.04;82.24;100175.94;12208948;19;20098;-82
2022/07/22 06:55:56;;;;;;;11.73;7.22;;;;;;;21.05;81.87;100179.53;12196166;19;20010;-79
2022/07/22 07:00:08;;;;;;;8.85;6.38;;;;;;;21.08;80.98;100168.53;12188587;19;20536;-81
2022/07/22 07:04:30;;;;;;;10.82;6.50;;;;;;;21.24;79.99;100171.88;12205487;19;20083;-79
2022/07/22 07:08:32;;;;;;;10.60;6.10;;;;;;;21.58;79.08;100170.59;12202523;19;20014;-79
2022/07/22 07:12:36;;;;;;;15.10;8.18;;;;;;;21.75;76.39;100162.38;12184313;19;20078;-81
2022/07/22 07:16:42;;;;;;;9.23;6.63;;;;;;;21.87;76.36;100155.38;12209126;19;20392;-81
2022/07/22 07:20:45;;;;;;;11.60;7.15;;;;;;;21.93;74.90;100154.09;12181360;19;20010;-78
2022/07/22 07:24:47;;;;;;;12.35;7.75;;;;;;;21.94;74.60;100148.16;12207508;19;20010;-81
2022/07/22 07:28:49;;;;;;;9.80;7.15;;;;;;;21.78;75.33;100150.50;12201935;19;20480;-81
2022/07/22 07:33:02;;;;;;;14.07;7.75;;;;;;;21.83;75.76;100147.59;12191117;19;20028;-81
2022/07/22 07:37:04;;;;;;;9.38;6.80;;;;;;;21.80;75.84;100145.44;12202712;19;20022;-81
2022/07/22 07:41:06;;;;;;;13.37;8.23;;;;;;;21.64;75.86;100137.69;12207553;19;20006;-81
2022/07/22 07:45:08;;;;;;;11.82;7.65;;;;;;;21.79;75.84;100149.34;12193442;19;20014;-80
2022/07/22 07:49:10;;;;;;;12.00;8.07;;;;;;;22.00;75.08;100146.88;12197928;19;20465;-81
2022/07/22 07:53:16;;;;;;;12.27;8.30;;;;;;;22.29;74.35;100142.84;12215437;19;20791;-81
2022/07/22 07:57:39;;;;;;;10.95;8.18;;;;;;;22.37;72.84;100141.22;12184037;19;20086;-81
2022/07/22 08:01:46;;;;;;;10.90;7.57;;;;;;;22.43;72.58;100134.34;12206996;19;20010;-81
2022/07/22 08:06:00;;;;;;;11.63;7.78;;;;;;;22.67;71.52;100126.38;12190318;19;20011;-80
2022/07/22 08:10:05;;;;;;;9.32;6.45;;;;;;;23.02;70.17;100128.50;12197851;19;20017;-83
2022/07/22 08:14:36;;;;;;;11.40;7.90;;;;;;;23.34;68.46;100133.72;12200438;19;20006;-80
2022/07/22 08:18:56;;;;;;;13.57;7.90;;;;;;;23.38;67.14;100131.09;12214651;19;20272;-81
2022/07/22 08:22:59;;;;;;;10.98;7.80;;;;;;;23.46;67.41;100123.84;12211047;19;20035;-80
2022/07/22 08:27:04;;;;;;;12.88;7.63;;;;;;;23.78;66.55;100128.19;12183180;19;20018;-83
2022/07/22 08:31:06;;;;;;;9.67;7.17;;;;;;;24.05;65.24;100122.22;12210085;19;20798;-80
2022/07/22 08:35:08;;;;;;;8.45;6.32;;;;;;;24.19;65.90;100122.03;12203205;19;20014;-82
2022/07/22 08:39:11;;;;;;;10.55;7.30;;;;;;;24.32;64.25;100115.38;12186855;19;20014;-81
2022/07/22 08:43:18;;;;;;;10.57;6.72;;;;;;;24.47;63.60;100101.97;12213482;19;20007;-80
2022/07/22 08:47:22;;;;;;;16.00;7.13;;;;;;;24.60;61.88;100092.47;12208296;19;20059;-80
2022/07/22 08:52:08;;;;;;;11.52;6.65;;;;;;;24.70;60.76;100102.56;12110637;19;2004893;-81
2022/07/22 08:56:14;;;;;;;9.57;6.95;;;;;;;24.84;60.00;100091.88;12209972;19;20372;-81
2022/07/22 09:00:18;;;;;;;11.82;6.82;;;;;;;24.71;60.98;100093.75;12192233;19;20468;-83
2022/07/22 09:04:20;;;;;;;9.32;6.55;;;;;;;24.85;61.07;100101.97;12207598;19;20019;-83
2022/07/22 09:08:22;;;;;;;9.32;6.88;;;;;;;25.16;60.42;100092.38;12209168;19;19998;-85
2022/07/22 09:12:49;;;;;;;9.77;6.25;;;;;;;25.42;59.21;100095.03;12189063;19;20028;-82
2022/07/22 09:17:32;;;;;;;10.15;6.40;;;;;;;25.56;58.19;100078.69;12214116;19;20015;-84
2022/07/22 09:21:57;;;;;;;10.63;6.70;;;;;;;25.74;57.96;100090.66;12186544;19;20034;-81
2022/07/22 09:26:31;;;;;;;8.07;6.22;;;;;;;25.74;56.57;100087.81;12203677;19;20027;-80
2022/07/22 09:31:01;;;;;;;10.15;6.47;;;;;;;25.81;56.61;100085.25;12184838;19;20353;-81
2022/07/22 09:35:10;;;;;;;8.23;5.93;;;;;;;25.86;55.90;100084.25;12206128;19;20455;-82
2022/07/22 09:39:31;;;;;;;11.48;6.82;;;;;;;25.91;56.15;100081.25;12185952;19;20018;-81
2022/07/22 09:43:35;;;;;;;7.30;5.82;;;;;;;25.99;54.81;100071.00;12203075;19;20007;-81
2022/07/22 09:47:41;;;;;;;7.53;6.03;;;;;;;26.01;55.33;100065.84;12184886;19;20003;-84
2022/07/22 09:52:15;;;;;;;9.88;5.70;;;;;;;26.43;53.41;100055.25;12198451;19;20081;-82
2022/07/22 09:56:32;;;;;;;7.75;5.47;;;;;;;26.62;52.38;100057.53;12200601;19;20011;-82
2022/07/22 10:00:36;;;;;;;7.47;5.68;;;;;;;26.84;51.78;100055.44;12171716;19;20454;-80
2022/07/22 10:04:40;;;;;;;9.05;6.40;;;;;;;27.18;50.08;100057.78;12195121;19;20017;-80
2022/07/22 10:08:46;;;;;;;7.25;5.80;;;;;;;27.46;49.22;100052.19;12171293;19;20003;-83
2022/07/22 10:12:49;;;;;;;8.52;5.93;;;;;;;27.30;49.21;100050.47;12199981;19;20017;-83
2022/07/22 10:16:52;;;;;;;6.82;5.95;;;;;;;27.47;48.81;100044.53;12194312;19;20021;-83
2022/07/22 10:21:09;;;;;;;7.20;6.38;;;;;;;27.73;48.78;100039.25;12170448;19;20003;-83
2022/07/22 10:25:13;;;;;;;7.70;4.95;;;;;;;28.22;47.43;100029.69;12197388;19;20029;-83
2022/07/22 10:29:38;;;;;;;7.57;5.40;;;;;;;28.61;46.24;100027.91;12189762;19;20125;-83
2022/07/22 10:33:40;;;;;;;12.95;6.43;;;;;;;28.65;46.12;100024.38;12172879;19;20010;-83
2022/07/22 10:37:43;;;;;;;8.73;5.72;;;;;;;28.59;43.69;100012.47;12192073;19;20014;-83
2022/07/22 10:41:45;;;;;;;6.47;5.40;;;;;;;28.85;44.40;100009.03;12178529;19;20010;-83
2022/07/22 10:45:55;;;;;;;8.05;5.28;;;;;;;28.78;43.00;100003.22;12194712;19;20550;-80
2022/07/22 10:50:38;;;;;;;9.10;5.82;;;;;;;29.05;44.05;100002.25;12201595;19;20018;-80
2022/07/22 10:54:59;;;;;;;;;;;;;;;29.36;42.20;99994.84;12182465;19;20018;-81
2022/07/22 10:59:09;;;;;;;6.97;5.18;;;;;;;29.42;41.74;99982.00;12194073;19;19950;-80
2022/07/22 11:03:11;;;;;;;7.07;5.90;;;;;;;29.80;40.95;99983.19;12172686;19;20014;-79
2022/07/22 11:07:12;;;;;;;8.50;5.93;;;;;;;29.66;40.86;99978.06;12187834;19;20397;-81
2022/07/22 11:11:15;;;;;;;8.23;5.18;;;;;;;29.94;41.68;99974.97;12195180;19;20424;-80
2022/07/22 11:15:24;;;;;;;7.95;5.35;;;;;;;30.33;38.63;99972.03;12178674;19;20401;-81
2022/07/22 11:19:29;;;;;;;7.03;5.45;;;;;;;30.34;37.90;99961.47;12197768;19;20024;-80
2022/07/22 11:23:32;;;;;;;6.57;5.35;;;;;;;30.29;38.26;99948.41;12191951;19;20007;-81
2022/07/22 11:27:34;;;;;;;8.65;5.32;;;;;;;30.30;37.45;99947.22;12173220;19;20011;-81
2022/07/22 11:31:38;;;;;;;6.35;4.93;;;;;;;30.61;37.77;99945.28;12199711;19;20361;-81
2022/07/22 11:35:59;;;;;;;6.85;5.22;;;;;;;30.46;37.85;99943.41;12178508;19;20104;-81
2022/07/22 11:40:05;;;;;;;8.52;6.15;;;;;;;30.53;37.42;99932.97;12214330;19;20015;-80
2022/07/22 11:44:07;;;;;;;6.63;5.38;;;;;;;30.76;37.68;99935.78;12221718;19;20010;-80
2022/07/22 11:48:09;;;;;;;;;;;;;;;30.63;36.57;99929.47;12189243;19;20014;-81
2022/07/22 11:52:14;;;;;;;11.60;6.05;;;;;;;30.80;36.73;99925.28;12256539;19;19911;-83
2022/07/22 11:56:15;;;;;;;7.35;5.82;;;;;;;31.22;36.16;99920.56;12219695;19;20011;-82
2022/07/22 12:00:18;;;;;;;7.60;6.38;;;;;;;31.59;35.54;99923.50;12192271;19;20452;-81
2022/07/22 12:04:21;;;;;;;;;;;;;;;31.75;35.13;99924.06;12215766;19;20006;-82
2022/07/22 12:08:23;;;;;;;7.82;5.95;;;;;;;31.99;34.15;99910.50;12207175;19;19933;-82
2022/07/22 12:12:46;;;;;;;7.68;6.38;;;;;;;31.85;34.06;99913.97;12193945;19;20011;-82
2022/07/22 12:17:03;;;;;;;8.70;6.50;;;;;;;32.43;34.16;99901.09;12223497;19;20010;-82
2022/07/22 12:21:05;;;;;;;6.93;6.22;;;;;;;33.09;32.53;99904.81;12194084;19;20015;-82
2022/07/22 12:25:07;;;;;;;8.05;6.53;;;;;;;33.10;31.83;99889.31;12210104;19;20023;-81
2022/07/22 12:29:24;;;;;;;9.38;6.75;;;;;;;34.16;31.20;99889.22;12218281;19;20694;-81
2022/07/22 12:33:26;;;;;;;6.80;6.10;;;;;;;34.77;30.96;99887.09;12198807;19;20010;-82
2022/07/22 12:37:32;;;;;;;7.40;6.60;;;;;;;35.59;29.32;99881.06;12208927;19;20076;-82
2022/07/22 12:41:33;;;;;;;8.73;7.10;;;;;;;36.15;28.54;99877.44;12215152;19;20022;-82
2022/07/22 12:45:37;;;;;;;9.30;7.03;;;;;;;36.68;27.97;99871.22;12190658;19;20060;-81
2022/07/22 12:49:39;;;;;;;8.68;6.40;;;;;;;37.16;27.57;99873.13;12215660;19;20019;-81
2022/07/22 12:53:41;;;;;;;7.22;6.53;;;;;;;36.76;26.73;99865.38;12190375;19;20013;-82
2022/07/22 12:57:43;;;;;;;9.77;6.78;;;;;;;37.57;26.54;99862.72;12216223;19;20018;-81
2022/07/22 13:01:44;;;;;;;7.53;6.65;;;;;;;37.38;26.61;99856.41;12205820;19;20006;-82
2022/07/22 13:05:48;;;;;;;8.73;7.25;;;;;;;37.41;26.34;99848.97;12185044;19;19998;-82
2022/07/22 13:09:50;;;;;;;7.85;6.28;;;;;;;37.79;26.03;99837.34;12207464;19;20011;-83
2022/07/22 13:13:52;;;;;;;8.45;7.07;;;;;;;37.95;25.32;99828.06;12207297;19;20014;-82
2022/07/22 13:17:53;;;;;;;7.35;6.55;;;;;;;37.58;25.82;99830.69;12181419;19;20021;-81
2022/07/22 13:21:55;;;;;;;8.88;6.93;;;;;;;38.37;25.20;99823.63;12212481;19;20030;-82
2022/07/22 13:25:56;;;;;;;9.07;6.88;;;;;;;38.98;24.21;99816.72;12198171;19;20023;-81
2022/07/22 13:29:58;;;;;;;8.20;6.60;;;;;;;39.82;24.04;99820.97;12191438;19;20019;-82
2022/07/22 13:34:00;;;;;;;7.32;6.63;;;;;;;40.33;22.58;99811.84;12208163;19;20023;-82
2022/07/22 13:38:03;;;;;;;8.63;6.78;;;;;;;40.05;22.62;99810.53;12211776;19;20011;-82
2022/07/22 13:42:04;;;;;;;7.57;6.53;;;;;;;40.56;22.37;99799.25;12191911;19;20031;-81
2022/07/22 13:46:06;;;;;;;8.20;6.20;;;;;;;40.96;22.07;99787.38;12210809;19;20414;-81
2022/07/22 13:50:08;;;;;;;10.80;6.88;;;;;;;41.15;22.13;99786.41;12213350;19;20018;-82
2022/07/22 13:54:10;;;;;;;7.45;6.55;;;;;;;41.41;21.72;99774.88;12179738;19;20006;-81
2022/07/22 13:58:12;;;;;;;6.70;6.00;;;;;;;41.74;21.33;99775.47;12206356;19;20024;-82
2022/07/22 14:02:14;;;;;;;7.43;6.50;;;;;;;42.34;20.33;99777.56;12205586;19;20015;-82
2022/07/22 14:06:16;;;;;;;6.72;6.03;;;;;;;42.55;20.26;99764.38;12194286;19;20015;-82
2022/07/22 14:10:18;;;;;;;7.15;6.45;;;;;;;42.46;20.24;99768.00;12202500;19;20077;-82
2022/07/22 14:14:19;;;;;;;7.90;6.00;;;;;;;42.24;20.18;99764.22;12218640;19;20014;-83
2022/07/22 14:18:21;;;;;;;7.13;6.43;;;;;;;42.82;19.96;99766.66;12177761;19;20011;-82
2022/07/22 14:22:23;;;;;;;8.30;6.72;;;;;;;42.91;19.54;99754.34;12201825;19;20072;-83
2022/07/22 14:26:25;;;;;;;6.93;6.18;;;;;;;43.25;19.18;99753.41;12204160;19;20059;-82
2022/07/22 14:30:28;;;;;;;6.88;6.18;;;;;;;42.99;19.17;99750.69;12187167;19;20018;-81
2022/07/22 14:34:30;;;;;;;7.93;6.30;;;;;;;42.70;19.58;99745.16;12201403;19;20011;-83
2022/07/22 14:38:32;;;;;;;7.18;6.40;;;;;;;43.53;18.81;99748.56;12200540;19;20630;-83
2022/07/22 14:42:33;;;;;;;7.38;6.65;;;;;;;43.98;18.13;99746.25;12181524;19;20054;-82
2022/07/22 14:46:35;;;;;;;8.00;6.38;;;;;;;44.29;17.86;99749.00;12203461;19;20003;-84
2022/07/22 14:50:37;;;;;;;7.82;7.05;;;;;;;43.83;18.62;99734.44;12202653;19;20509;-82
2022/07/22 14:54:38;;;;;;;6.88;5.97;;;;;;;42.40;19.47;99734.31;12170147;19;20399;-83
2022/07/22 14:58:40;;;;;;;7.93;6.10;;;;;;;39.87;21.27;99739.69;12201118;19;20011;-81
2022/07/22 15:02:42;;;;;;;8.65;6.60;;;;;;;38.36;22.59;99741.41;12173882;19;20011;-82
2022/07/22 15:06:43;;;;;;;8.35;7.43;;;;;;;37.14;23.81;99739.78;12202602;19;20011;-82
2022/07/22 15:10:45;;;;;;;10.07;7.65;;;;;;;36.62;24.27;99729.41;12206199;19;20388;-81
2022/07/22 15:14:47;;;;;;;8.43;7.03;;;;;;;36.56;24.64;99731.13;12188386;19;20006;-81
2022/07/22 15:18:48;;;;;;;10.25;7.63;;;;;;;36.23;24.96;99724.06;12209307;19;20010;-81
2022/07/22 15:22:51;;;;;;;7.13;6.47;;;;;;;36.87;24.67;99722.50;12207715;19;20495;-83
2022/07/22 15:26:52;;;;;;;10.13;7.38;;;;;;;38.45;22.88;99712.88;12184019;19;20018;-83
2022/07/22 15:30:57;;;;;;;7.95;7.07;;;;;;;38.96;22.63;99716.31;12206612;19;20450;-82
2022/07/22 15:34:59;;;;;;;7.38;6.55;;;;;;;38.23;23.36;99708.81;12240011;19;20010;-85
2022/07/22 15:39:00;;;;;;;9.65;6.70;;;;;;;37.10;24.21;99708.25;12230272;19;20016;-83
2022/07/22 15:43:03;;;;;;;8.18;6.75;;;;;;;36.28;25.18;99697.81;12224362;19;20046;-84
2022/07/22 15:47:05;;;;;;;8.80;7.53;;;;;;;35.52;26.04;99702.63;12215213;19;20022;-83
2022/07/22 15:51:08;;;;;;;11.52;6.78;;;;;;;34.49;27.16;99694.22;12198807;19;20070;-83
2022/07/22 15:55:10;;;;;;;8.35;7.00;;;;;;;33.67;28.42;99697.25;12222121;19;20034;-82
2022/07/22 16:03:33;;;;;;;7.33;6.63;;;;;;;32.82;29.72;99707.34;12192739;19;20764;-83
2022/07/22 16:07:35;;;;;;;6.97;6.18;;;;;;;32.55;30.19;99712.53;12201604;19;20090;-82
2022/07/22 16:11:37;;;;;;;7.80;6.55;;;;;;;32.33;30.57;99697.31;12205268;19;20027;-82
2022/07/22 16:15:38;;;;;;;8.75;6.10;;;;;;;32.20;30.91;99693.22;12179891;19;20069;-83
2022/07/22 16:19:40;;;;;;;7.07;6.22;;;;;;;32.11;31.37;99692.75;12202871;19;20452;-83
2022/07/22 16:23:42;;;;;;;11.70;6.70;;;;;;;32.06;31.52;99691.09;12209230;19;20367;-82
2022/07/22 16:27:43;;;;;;;;;;;;;;;31.97;31.36;99679.22;12198578;19;21390;-83
2022/07/22 16:31:46;;;;;;;7.40;6.10;;;;;;;31.86;31.53;99690.53;12209700;19;19903;-83
2022/07/22 16:35:48;;;;;;;8.90;6.28;;;;;;;31.70;32.11;99676.59;12191975;19;20010;-83
2022/07/22 16:39:51;;;;;;;8.30;6.85;;;;;;;31.54;31.99;99662.66;12197659;19;20006;-82
2022/07/22 16:43:53;;;;;;;10.50;5.90;;;;;;;31.35;32.09;99676.31;12208880;19;20024;-85
2022/07/22 16:47:55;;;;;;;8.02;6.18;;;;;;;31.13;33.02;99676.09;12186388;19;20020;-83
2022/07/22 16:51:57;;;;;;;8.55;6.05;;;;;;;30.95;33.10;99672.25;12205018;19;20080;-84
2022/07/22 16:55:59;;;;;;;9.32;6.78;;;;;;;30.75;33.56;99666.72;12209513;19;20367;-82
2022/07/22 17:00:01;;;;;;;7.95;5.97;;;;;;;30.61;33.29;99660.91;12185958;19;20049;-82
2022/07/22 17:04:02;;;;;;;13.65;7.03;;;;;;;30.60;33.38;99670.63;12200351;19;20010;-84
2022/07/22 17:08:04;;;;;;;9.57;6.53;;;;;;;30.61;34.02;99684.47;12209991;19;20483;-83
2022/07/22 17:12:06;;;;;;;8.07;6.03;;;;;;;30.68;34.09;99691.44;12184387;19;20402;-84
2022/07/22 17:16:08;;;;;;;9.95;6.20;;;;;;;30.69;33.94;99682.53;12209482;19;20098;-83
2022/07/22 17:20:13;;;;;;;8.57;6.25;;;;;;;30.80;33.72;99691.22;12202822;19;20007;-84
2022/07/22 17:24:14;;;;;;;6.97;5.35;;;;;;;30.88;33.93;99687.25;12186542;19;20053;-83
2022/07/22 17:28:16;;;;;;;7.10;6.07;;;;;;;31.12;33.21;99688.69;12198448;19;20027;-82
2022/07/22 17:32:18;;;;;;;8.07;5.13;;;;;;;31.24;33.31;99682.72;12207161;19;20082;-82
2022/07/22 17:36:19;;;;;;;10.95;7.05;;;;;;;31.45;33.29;99689.84;12185865;19;20023;-82
2022/07/22 17:40:21;;;;;;;9.57;5.93;;;;;;;31.31;33.03;99687.63;12204250;19;20014;-82
2022/07/22 17:44:23;;;;;;;8.27;7.18;;;;;;;30.96;32.86;99671.84;12205105;19;20014;-83
2022/07/22 17:48:24;;;;;;;11.00;6.68;;;;;;;30.64;33.83;99682.88;12183970;19;20011;-83
2022/07/22 17:52:26;;;;;;;8.40;6.40;;;;;;;30.40;34.23;99689.88;12208244;19;20673;-83
2022/07/22 17:56:28;;;;;;;8.20;6.13;;;;;;;30.28;33.72;99688.13;12203457;19;20031;-82
2022/07/22 18:00:32;;;;;;;7.35;6.30;;;;;;;30.16;34.27;99692.00;12179192;19;20014;-81
2022/07/22 18:04:34;;;;;;;;;;;;;;;30.31;34.67;99686.53;12201108;19;20086;-82
2022/07/22 18:08:36;;;;;;;8.15;5.70;;;;;;;30.31;35.70;99680.84;12194761;19;19911;-82
2022/07/22 18:12:38;;;;;;;8.05;6.10;;;;;;;30.21;36.05;99670.97;12184097;19;20736;-83
2022/07/22 18:16:39;;;;;;;8.75;5.55;;;;;;;30.08;36.42;99647.66;12206801;19;20081;-83
2022/07/22 18:20:41;;;;;;;7.72;6.45;;;;;;;29.86;37.24;99642.88;12213281;19;20006;-82
2022/07/22 18:24:43;;;;;;;11.25;5.93;;;;;;;29.57;38.12;99624.56;12185009;19;20014;-82
2022/07/22 18:28:45;;;;;;;8.98;6.25;;;;;;;29.27;38.43;99636.66;12202854;19;20803;-83
2022/07/22 18:32:49;;;;;;;8.25;6.13;;;;;;;29.05;38.46;99636.31;12191155;19;20364;-83
2022/07/22 18:36:51;;;;;;;9.77;5.72;;;;;;;28.80;40.05;99630.16;12204246;19;20006;-83
2022/07/22 18:40:52;;;;;;;8.18;6.07;;;;;;;28.49;40.70;99630.38;12205723;19;20011;-83
2022/07/22 18:44:54;;;;;;;7.13;5.40;;;;;;;28.19;41.48;99616.81;12190675;19;20027;-83
2022/07/22 18:49:01;;;;;;;8.85;5.55;;;;;;;27.93;42.66;99609.81;12219685;19;20035;-83